Terminal Aerodrome Forecast
Issued by NWS Wilmington, OH

Current Version | Previous Version | Graphics & Text | Print | Product List | Glossary On
Versions: 1 2 3 4 5 6 7 8 9 10 11 12 13 14 15 16 17 18 19 20 21 22 23 24
000
FTUS41 KILN 250800 AAA
TAFCVG
TAF AMD
KCVG 250859Z 2509/2612 25011KT P6SM BKN015 OVC022
     FM251700 21010KT P6SM SCT015 OVC022
     FM252300 18006KT P6SM SKC=

USA.gov is the U.S. government's official web portal to all federal, state and local government web resources and services.